createdAt,value
2023-03-23T15:58:26.491Z,4.10
2023-03-23T16:00:54.518Z,4.80
2023-03-23T16:03:27.781Z,4.40
2023-03-23T16:05:55.648Z,4.40
2023-03-23T16:08:23.170Z,4.80
2023-03-23T16:10:51.292Z,5.10
2023-03-23T16:13:18.508Z,5.00
2023-03-23T16:15:46.321Z,4.70
2023-03-23T16:18:21.828Z,5.00
2023-03-23T16:20:50.191Z,5.00
2023-03-23T16:23:19.882Z,5.60
2023-03-23T16:25:47.017Z,5.30
2023-03-23T16:28:15.477Z,5.10
2023-03-23T16:30:45.641Z,4.70
2023-03-23T16:33:13.039Z,4.60
2023-03-23T16:35:40.333Z,4.30
2023-03-23T16:38:09.292Z,4.50
2023-03-23T16:40:38.504Z,4.70
2023-03-23T16:43:08.456Z,4.70
2023-03-23T16:45:36.796Z,4.50
2023-03-23T16:48:04.198Z,4.40
2023-03-23T16:50:32.272Z,4.70
2023-03-23T16:52:59.676Z,4.60
2023-03-23T16:55:27.317Z,5.40
2023-03-23T16:58:05.411Z,6.10
2023-03-23T17:00:41.051Z,7.90
2023-03-23T17:03:09.098Z,7.40
2023-03-23T17:05:38.588Z,7.80
2023-03-23T17:08:07.550Z,8.30
2023-03-23T17:10:35.489Z,8.10
2023-03-23T17:13:03.184Z,7.60
2023-03-23T17:15:30.260Z,7.90
2023-03-23T17:17:58.110Z,6.70
2023-03-23T17:20:25.869Z,7.40
2023-03-23T17:22:53.154Z,5.80
2023-03-23T17:25:20.439Z,5.50
2023-03-23T17:27:47.510Z,5.60
2023-03-23T17:30:15.516Z,6.00
2023-03-23T17:32:42.864Z,5.80
2023-03-23T17:35:12.495Z,5.60
2023-03-23T17:37:39.929Z,6.10
2023-03-23T17:40:10.345Z,6.50
2023-03-23T17:42:38.096Z,6.10
2023-03-23T17:45:06.434Z,7.30
2023-03-23T17:47:34.288Z,7.70
2023-03-23T17:50:11.519Z,7.50
2023-03-23T17:52:40.137Z,7.40
2023-03-23T17:55:08.457Z,7.90
2023-03-23T17:57:36.262Z,8.00
2023-03-23T18:00:04.171Z,7.80
2023-03-23T18:02:34.239Z,7.80
2023-03-23T18:05:01.555Z,7.80
2023-03-23T18:07:29.317Z,7.70
2023-03-23T18:10:00.745Z,7.80
2023-03-23T18:12:27.951Z,7.70
2023-03-23T18:14:59.136Z,8.30
2023-03-23T18:17:26.787Z,7.90
2023-03-23T18:19:54.130Z,8.40
2023-03-23T18:22:21.529Z,8.80
2023-03-23T18:24:48.917Z,8.40
2023-03-23T18:27:17.447Z,8.00
2023-03-23T18:29:45.165Z,8.10
2023-03-23T18:32:12.891Z,8.00
2023-03-23T18:34:41.799Z,8.20
2023-03-23T18:37:09.778Z,7.60
2023-03-23T18:39:37.059Z,7.90
2023-03-23T18:42:04.214Z,7.20
2023-03-23T18:44:31.940Z,7.70
2023-03-23T18:46:59.031Z,8.20
2023-03-23T18:49:26.426Z,8.50
2023-03-23T18:51:53.760Z,8.00
2023-03-23T18:54:22.139Z,8.80
2023-03-23T18:56:49.526Z,11.00
2023-03-23T18:59:17.144Z,10.60
2023-03-23T19:01:44.242Z,9.50
2023-03-23T19:04:13.726Z,8.00
2023-03-23T19:06:41.186Z,7.80
2023-03-23T19:09:08.337Z,8.50
2023-03-23T19:11:35.882Z,7.10
2023-03-23T19:14:03.819Z,7.10
2023-03-23T19:16:32.356Z,7.00
2023-03-23T19:19:10.363Z,7.00
2023-03-23T19:21:39.854Z,7.70
2023-03-23T19:24:09.094Z,7.30
2023-03-23T19:26:38.391Z,6.60
2023-03-23T19:31:36.468Z,5.30
2023-03-23T19:34:03.776Z,5.80
2023-03-23T19:36:31.438Z,5.10
2023-03-23T19:39:02.803Z,5.10
2023-03-23T19:41:30.552Z,4.60
2023-03-23T19:43:57.889Z,5.10
2023-03-23T19:46:27.012Z,4.80
2023-03-23T19:48:56.517Z,4.50
2023-03-23T19:51:24.414Z,4.40
2023-03-23T19:53:51.754Z,4.50
2023-03-23T19:56:21.639Z,5.10
2023-03-23T19:58:49.441Z,4.20
2023-03-23T20:01:20.407Z,4.40
2023-03-23T20:03:48.482Z,5.00
2023-03-23T20:06:17.828Z,4.00
2023-03-23T20:08:46.235Z,3.60
2023-03-23T20:11:14.884Z,3.20
2023-03-23T20:13:42.659Z,3.00
2023-03-23T20:16:11.818Z,2.70
2023-03-23T20:18:40.549Z,2.40
2023-03-23T20:21:11.993Z,2.40
2023-03-23T20:23:40.561Z,2.40
2023-03-23T20:26:12.301Z,2.40
2023-03-23T20:28:40.800Z,2.40
2023-03-23T20:31:19.955Z,2.60
2023-03-23T20:34:00.572Z,2.70
2023-03-23T20:36:29.958Z,2.50
2023-03-23T20:38:58.011Z,2.60
2023-03-23T20:41:25.752Z,2.80
2023-03-23T20:43:52.999Z,3.00
2023-03-23T20:46:21.696Z,3.10
2023-03-23T20:48:51.802Z,2.90
2023-03-23T20:51:23.270Z,3.70
2023-03-23T20:53:51.140Z,3.50
2023-03-23T20:56:19.772Z,3.70
2023-03-23T20:58:47.976Z,3.80
2023-03-23T21:03:54.373Z,4.90
2023-03-23T21:06:22.230Z,4.90
2023-03-23T21:08:52.576Z,4.80
2023-03-23T21:11:22.312Z,4.90
2023-03-23T21:13:50.739Z,4.40
2023-03-23T21:16:19.379Z,4.20
2023-03-23T21:18:47.776Z,4.60
2023-03-23T21:21:18.469Z,4.10
2023-03-23T21:23:52.258Z,3.90
2023-03-23T21:26:21.668Z,4.50
2023-03-23T21:28:50.925Z,4.20
2023-03-23T21:31:18.501Z,4.40
2023-03-23T21:33:46.099Z,4.20
2023-03-23T21:36:13.935Z,4.30
2023-03-23T21:38:41.702Z,4.00
2023-03-23T21:41:11.933Z,3.80
2023-03-23T21:43:40.724Z,4.30
2023-03-23T21:46:10.033Z,4.70
2023-03-23T21:48:38.822Z,4.20
2023-03-23T21:51:10.732Z,4.70
2023-03-23T21:53:38.009Z,4.40
2023-03-23T21:56:08.057Z,4.90
2023-03-23T21:58:35.636Z,4.60
2023-03-23T22:01:03.201Z,4.50
2023-03-23T22:03:32.831Z,4.30
2023-03-23T22:06:00.839Z,5.20
2023-03-23T22:08:30.669Z,4.80
2023-03-23T22:11:02.821Z,5.20
2023-03-23T22:13:30.532Z,5.30
2023-03-23T22:15:58.758Z,5.90
2023-03-23T22:18:26.215Z,5.70
2023-03-23T22:20:53.420Z,5.50
2023-03-23T22:23:20.870Z,5.80
2023-03-23T22:25:48.288Z,6.10
2023-03-23T22:28:15.481Z,6.70
2023-03-23T22:30:43.692Z,6.70
2023-03-23T22:33:17.826Z,7.60
2023-03-23T22:35:47.801Z,7.50
2023-03-23T22:38:15.223Z,7.30
2023-03-23T22:40:43.104Z,7.40
2023-03-23T22:43:10.853Z,8.50
2023-03-23T22:45:38.060Z,8.60
2023-03-23T22:48:08.262Z,8.10
2023-03-23T22:50:36.147Z,8.00
2023-03-23T22:53:03.535Z,7.40
2023-03-23T22:55:30.927Z,8.10
2023-03-23T22:57:58.786Z,7.80
2023-03-23T23:00:26.557Z,7.90
2023-03-23T23:02:53.948Z,8.30
2023-03-23T23:05:21.141Z,7.30
2023-03-23T23:07:48.352Z,7.20
2023-03-23T23:10:15.718Z,6.60
2023-03-23T23:12:45.739Z,6.90
2023-03-23T23:15:14.889Z,7.20
2023-03-23T23:17:43.168Z,7.10
2023-03-23T23:20:14.227Z,6.30
2023-03-23T23:22:43.126Z,6.70
2023-03-23T23:25:11.638Z,6.80
2023-03-23T23:27:38.879Z,6.70
2023-03-23T23:30:09.205Z,6.60
2023-03-23T23:32:36.640Z,6.20
2023-03-23T23:35:05.804Z,6.30
2023-03-23T23:37:33.218Z,6.40
2023-03-23T23:40:00.365Z,6.50
2023-03-23T23:42:27.604Z,6.80
2023-03-23T23:44:54.882Z,6.30
2023-03-23T23:47:22.464Z,6.20
2023-03-23T23:49:49.701Z,7.00
2023-03-23T23:52:16.821Z,6.50
2023-03-23T23:54:47.308Z,6.20
2023-03-23T23:57:15.595Z,6.00
2023-03-23T23:59:44.051Z,6.60
